Time;durP1;ratioP1;P1;durP2;ratioP2;P2;SDS_P1;SDS_P2;PMS_P1;PMS_P2;Temp;Humidity;BMP_temperature;BMP_pressure;BME280_temperature;BME280_humidity;BME280_pressure;Samples;Min_cycle;Max_cycle;Signal;HPM_P1;HPM_P2
2022/11/07 00:00:16;;;;;;;;;;;;;;;18.39;65.45;98950.41;2104609;28;19923;-49
2022/11/07 00:01:20;;;;;;;4.95;3.42;;;;;;;18.42;65.39;98950.00;2102066;28;19923;-48
2022/11/07 00:02:22;;;;;;;4.03;3.08;;;;;;;18.47;65.08;98955.63;2102653;28;20456;-46
2022/11/07 00:03:24;;;;;;;6.93;3.35;;;;;;;18.50;65.05;98952.56;2101700;28;20053;-47
2022/11/07 00:04:27;;;;;;;5.40;2.78;;;;;;;18.52;64.80;98955.84;2102912;28;20043;-47
2022/11/07 00:05:29;;;;;;;4.82;2.75;;;;;;;18.53;64.71;98948.66;2101933;28;20051;-48
2022/11/07 00:06:31;;;;;;;4.00;3.10;;;;;;;18.54;64.89;98955.69;2102503;28;20039;-48
2022/11/07 00:07:33;;;;;;;6.97;3.33;;;;;;;18.53;64.90;98954.84;2102536;28;20075;-47
2022/11/07 00:08:34;;;;;;;4.70;3.03;;;;;;;18.54;64.80;98956.50;2100938;28;20047;-48
2022/11/07 00:09:35;;;;;;;;;;;;;;;18.46;65.01;98956.66;2102500;27;20047;-49
2022/11/07 00:10:37;;;;;;;;;;;;;;;18.39;65.04;98953.09;2104256;28;19931;-49
2022/11/07 00:11:38;;;;;;;4.43;3.17;;;;;;;18.43;65.22;98951.66;2106825;27;19927;-47
2022/11/07 00:12:39;;;;;;;;;;;;;;;18.39;65.13;98963.84;2109870;28;20052;-47
2022/11/07 00:13:40;;;;;;;7.43;3.53;;;;;;;18.42;65.03;98960.75;2108360;28;19923;-47
2022/11/07 00:14:42;;;;;;;;;;;;;;;18.37;65.09;98963.19;2109840;27;20063;-49
2022/11/07 00:15:42;;;;;;;;;;;;;;;18.33;65.53;98961.94;2109868;28;21830;-50
2022/11/07 00:16:45;;;;;;;4.97;3.63;;;;;;;18.38;65.26;98962.16;2109237;28;19932;-50
2022/11/07 00:17:47;;;;;;;3.33;2.70;;;;;;;18.43;65.14;98958.91;2107306;28;20525;-49
2022/11/07 00:18:48;;;;;;;5.10;3.00;;;;;;;18.46;64.87;98967.38;2109011;28;20052;-49
2022/11/07 00:19:49;;;;;;;;;;;;;;;18.39;64.98;98966.53;2108478;28;20048;-48
2022/11/07 00:20:50;;;;;;;4.93;3.15;;;;;;;18.42;65.10;98971.50;2109607;28;19924;-48
2022/11/07 00:21:53;;;;;;;;;;;;;;;18.37;65.24;98970.44;2108648;28;20061;-50
2022/11/07 00:22:54;;;;;;;4.22;2.47;;;;;;;18.41;64.96;98972.50;2108208;28;19926;-47
2022/11/07 00:23:57;;;;;;;6.32;3.25;;;;;;;18.45;64.81;98975.66;2107383;27;20047;-48
2022/11/07 00:24:59;;;;;;;5.70;2.65;;;;;;;18.47;64.93;98977.13;2108326;28;20702;-48
2022/11/07 00:26:01;;;;;;;5.40;2.53;;;;;;;18.49;64.64;98971.53;2107654;28;20051;-50
2022/11/07 00:27:02;;;;;;;3.42;2.53;;;;;;;18.50;64.79;98971.38;2109739;28;20433;-47
2022/11/07 00:28:04;;;;;;;4.90;3.28;;;;;;;18.50;64.80;98971.38;2107930;28;20052;-47
2022/11/07 00:29:06;;;;;;;4.40;3.00;;;;;;;18.50;64.80;98971.38;2109726;28;20108;-49
2022/11/07 00:30:07;;;;;;;4.68;2.95;;;;;;;18.50;64.56;98974.06;2107054;28;20058;-49
2022/11/07 00:31:11;;;;;;;3.58;2.50;;;;;;;18.51;64.66;98970.31;2109145;28;20051;-48
2022/11/07 00:32:13;;;;;;;5.07;2.67;;;;;;;18.50;64.74;98982.09;2106907;28;20044;-48
2022/11/07 00:33:14;;;;;;;5.93;2.72;;;;;;;18.51;64.48;98980.25;2109151;28;20059;-47
2022/11/07 00:34:16;;;;;;;;;;;;;;;18.41;64.81;98977.88;2108294;28;20052;-51
2022/11/07 00:35:16;;;;;;;4.65;2.17;;;;;;;18.43;64.84;98983.91;2109228;28;19919;-51
2022/11/07 00:36:18;;;;;;;;;;;;;;;18.37;64.90;98983.84;2107391;28;20058;-47
2022/11/07 00:37:22;;;;;;;4.05;2.90;;;;;;;18.42;64.77;98984.09;2101967;28;19931;-49
2022/11/07 00:38:22;;;;;;;6.38;2.78;;;;;;;18.43;64.69;98983.91;2107304;28;20043;-49
2022/11/07 00:39:24;;;;;;;;;;;;;;;18.36;65.01;98983.03;2108891;28;20048;-46
2022/11/07 00:40:25;;;;;;;6.35;3.35;;;;;;;18.42;64.96;98993.00;2105565;28;19927;-50
2022/11/07 00:41:27;;;;;;;;;;;;;;;18.35;64.96;98977.84;2107485;28;20078;-47
2022/11/07 00:42:28;;;;;;;5.25;2.83;;;;;;;18.40;64.79;98983.47;2108258;28;20102;-47
2022/11/07 00:43:30;;;;;;;3.38;2.67;;;;;;;18.44;64.83;98982.03;2107125;28;20532;-48
2022/11/07 00:44:32;;;;;;;3.05;2.72;;;;;;;18.46;64.73;98986.19;2108055;28;20059;-48
2022/11/07 00:45:32;;;;;;;5.57;3.60;;;;;;;18.47;64.44;98981.66;2107408;28;20055;-48
2022/11/07 00:46:34;;;;;;;;;;;;;;;18.38;64.84;98980.97;2108327;28;20130;-48
2022/11/07 00:47:35;;;;;;;4.50;2.67;;;;;;;18.39;64.91;98977.25;2107600;28;19930;-48
2022/11/07 00:48:36;;;;;;;;;;;;;;;18.34;65.02;98986.94;2109310;28;20039;-46
2022/11/07 00:49:37;;;;;;;;;;;;;;;18.28;65.20;98981.28;2109343;28;19927;-48
2022/11/07 00:50:39;;;;;;;4.13;2.23;;;;;;;18.35;65.12;98980.53;2108704;28;20423;-48
2022/11/07 00:51:40;;;;;;;3.67;2.42;;;;;;;18.38;64.74;98980.97;2107872;28;20043;-48
2022/11/07 00:52:44;;;;;;;3.42;2.70;;;;;;;18.42;64.75;98984.09;2107961;28;20134;-48
2022/11/07 00:53:45;;;;;;;9.60;3.33;;;;;;;18.43;64.62;98983.91;2107082;28;20056;-50
2022/11/07 00:54:46;;;;;;;;;;;;;;;18.36;64.88;98985.72;2109520;28;20056;-47
2022/11/07 00:55:47;;;;;;;3.33;2.78;;;;;;;18.39;64.88;98981.81;2108062;28;20781;-49
2022/11/07 00:56:49;;;;;;;;;;;;;;;18.32;65.12;98981.72;2108217;28;20056;-50
2022/11/07 00:57:49;;;;;;;3.42;3.08;;;;;;;18.37;64.60;98983.84;2107773;28;19927;-48
2022/11/07 00:58:54;;;;;;;;;;;;;;;18.32;65.01;98984.41;2109666;28;20061;-50
2022/11/07 00:59:55;;;;;;;2.92;2.63;;;;;;;18.35;64.71;98981.34;2108378;28;19938;-48
2022/11/07 01:00:57;;;;;;;;;;;;;;;18.30;64.90;98990.00;2108276;28;20062;-51
2022/11/07 01:01:59;;;;;;;;;;;;;;;18.26;64.86;98986.03;2109133;28;20593;-49
2022/11/07 01:05:38;;;;;;;4.00;2.70;;;;;;;18.36;64.55;98993.78;2108986;28;20040;-46
2022/11/07 01:06:41;;;;;;;;;;;;;;;18.29;64.94;98982.94;2107540;28;20771;-49
2022/11/07 01:07:43;;;;;;;2.88;2.20;;;;;;;18.34;64.89;98990.44;2107411;28;19935;-49
2022/11/07 01:08:45;;;;;;;3.33;2.45;;;;;;;18.38;64.56;98993.56;2104533;28;20059;-46
2022/11/07 01:09:47;;;;;;;4.57;2.45;;;;;;;18.39;64.54;98985.31;2107259;28;20047;-46
2022/11/07 01:10:47;;;;;;;3.22;2.20;;;;;;;18.40;64.29;98989.66;2108281;28;20043;-48
2022/11/07 01:11:49;;;;;;;;;;;;;;;18.33;64.63;98994.16;2107470;28;20069;-48
2022/11/07 01:12:50;;;;;;;3.95;2.38;;;;;;;18.35;64.57;98991.25;2107497;28;19938;-47
2022/11/07 01:13:55;;;;;;;;;;;;;;;18.30;64.66;98997.19;2108325;28;20069;-47
2022/11/07 01:14:56;;;;;;;3.42;2.15;;;;;;;18.34;64.78;98992.28;2103300;28;19923;-48
2022/11/07 01:15:57;;;;;;;;;;;;;;;18.27;64.93;98997.59;2104024;28;20509;-47
2022/11/07 01:16:58;;;;;;;;;;;;;;;18.22;65.14;98994.66;2110403;27;20608;-47
2022/11/07 01:18:00;;;;;;;3.50;2.83;;;;;;;18.29;64.89;98992.88;2109377;28;19919;-48
2022/11/07 01:19:02;;;;;;;3.55;2.13;;;;;;;18.33;64.86;98991.47;2103858;27;20050;-46
2022/11/07 01:20:04;;;;;;;4.35;2.47;;;;;;;18.38;64.61;98990.88;2107912;28;20048;-47
2022/11/07 01:21:06;;;;;;;4.35;2.88;;;;;;;18.39;64.25;98987.19;2111088;28;20047;-47
2022/11/07 01:22:08;;;;;;;2.50;1.98;;;;;;;18.41;64.36;98990.47;2104753;28;20062;-46
2022/11/07 01:23:10;;;;;;;2.67;2.00;;;;;;;18.41;64.53;98995.84;2108667;28;20055;-50
2022/11/07 01:24:13;;;;;;;4.43;2.03;;;;;;;18.40;64.36;98988.84;2106003;28;20561;-49
2022/11/07 01:25:14;;;;;;;4.32;3.03;;;;;;;18.40;64.29;98986.16;2106404;28;20039;-47
2022/11/07 01:26:16;;;;;;;;;;;;;;;18.33;64.44;98985.25;2107181;28;20511;-50
2022/11/07 01:27:16;;;;;;;3.80;2.50;;;;;;;18.36;64.65;98987.53;2104926;28;20377;-48
2022/11/07 01:28:18;;;;;;;;;;;;;;;18.28;64.76;98985.84;2104797;28;20058;-48
2022/11/07 01:29:19;;;;;;;5.45;2.22;;;;;;;18.33;64.68;98988.78;2106008;28;19934;-48
2022/11/07 01:30:21;;;;;;;3.40;2.17;;;;;;;18.34;64.87;98990.44;2106200;27;20055;-48
2022/11/07 01:31:22;;;;;;;6.03;2.50;;;;;;;18.38;64.47;98991.69;2104680;28;20589;-47
2022/11/07 01:32:23;;;;;;;;;;;;;;;18.29;64.63;98988.31;2108838;28;20056;-48
2022/11/07 01:33:24;;;;;;;6.20;2.83;;;;;;;18.32;64.39;98992.47;2109448;28;19924;-50
2022/11/07 01:34:26;;;;;;;;;;;;;;;18.25;64.60;98988.91;2107237;28;20054;-48
2022/11/07 01:35:27;;;;;;;2.90;1.98;;;;;;;18.31;64.46;98999.72;2106674;28;19931;-51
2022/11/07 01:36:28;;;;;;;;;;;;;;;18.24;64.83;98988.06;2106271;28;20051;-49
2022/11/07 01:37:29;;;;;;;;;;;;;;;18.21;64.76;98993.00;2111583;28;19928;-48
2022/11/07 01:38:32;;;;;;;3.47;2.00;;;;;;;18.26;64.64;98987.88;2105490;28;19923;-48
2022/11/07 01:39:33;;;;;;;3.55;2.10;;;;;;;18.31;64.74;98993.50;2108448;28;20296;-52
2022/11/07 01:41:19;;;;;;;;;;;;;;;18.23;64.65;98988.28;2108262;28;20987;-48
2022/11/07 01:42:00;;;;;;;3.47;2.15;;;;;;;18.28;64.88;98991.22;2107830;28;20038;-48
2022/11/07 01:43:02;;;;;;;;;;;;;;;18.22;64.81;98986.59;2105111;28;20039;-51
2022/11/07 01:44:42;;;;;;;4.30;2.40;;;;;;;18.25;64.54;98988.91;2109975;28;19927;-53
2022/11/07 01:45:43;;;;;;;3.83;1.80;;;;;;;18.28;64.52;98997.41;2107207;28;20563;-52
2022/11/07 01:46:45;;;;;;;;;;;;;;;18.23;64.80;98988.28;2110633;27;20043;-50
2022/11/07 01:47:47;;;;;;;3.50;2.35;;;;;;;18.26;64.78;98987.88;2111989;28;19972;-49
2022/11/07 01:48:55;;;;;;;3.80;2.88;;;;;;;18.30;64.52;98984.63;2108355;28;20090;-49
2022/11/07 01:49:56;;;;;;;2.75;2.10;;;;;;;18.33;64.44;98994.16;2112628;28;20065;-49
2022/11/07 01:50:58;;;;;;;3.38;2.08;;;;;;;18.33;64.39;98991.47;2112810;28;20393;-47
2022/11/07 01:52:03;;;;;;;2.63;1.77;;;;;;;18.35;64.26;98989.41;2110373;28;20227;-55
2022/11/07 01:53:04;;;;;;;3.47;1.73;;;;;;;18.34;64.39;98987.75;2114190;28;20051;-48
2022/11/07 01:54:07;;;;;;;3.40;2.10;;;;;;;18.36;64.20;98982.16;2110096;28;20091;-50
2022/11/07 01:55:13;;;;;;;3.08;2.10;;;;;;;18.36;64.14;98993.78;2103712;28;20043;-48
2022/11/07 01:56:16;;;;;;;2.45;2.00;;;;;;;18.36;64.08;98988.41;2104334;28;20040;-49
2022/11/07 01:57:22;;;;;;;2.85;2.40;;;;;;;18.37;64.11;98984.69;2103360;28;20043;-50
2022/11/07 01:58:23;;;;;;;4.55;2.40;;;;;;;18.36;64.05;98983.03;2103010;28;20051;-50
2022/11/07 01:59:27;;;;;;;;;;;;;;;18.27;64.52;98990.34;2104466;28;20047;-47
2022/11/07 02:00:30;;;;;;;3.92;2.20;;;;;;;18.30;64.29;98986.47;2107790;28;20613;-49
2022/11/07 02:01:32;;;;;;;2.95;1.63;;;;;;;18.33;64.24;98990.63;2104151;28;20736;-51
2022/11/07 02:02:33;;;;;;;4.88;2.22;;;;;;;18.34;64.26;98987.75;2100826;28;20055;-52
2022/11/07 02:03:35;;;;;;;3.75;1.90;;;;;;;18.36;64.12;98993.78;2106093;28;20051;-47
2022/11/07 02:04:36;;;;;;;4.20;2.28;;;;;;;18.35;64.30;98992.09;2103089;27;20043;-48
2022/11/07 02:05:43;;;;;;;3.33;2.20;;;;;;;18.35;64.18;98992.09;2107840;28;21239;-49
2022/11/07 02:06:47;;;;;;;3.53;1.65;;;;;;;18.35;64.37;98992.09;2104107;28;20051;-47
2022/11/07 02:07:49;;;;;;;4.65;2.47;;;;;;;18.35;64.03;98986.72;2104865;28;20055;-50
2022/11/07 02:08:51;;;;;;;2.72;2.10;;;;;;;18.35;64.38;98985.88;2103949;28;20051;-46
2022/11/07 02:09:55;;;;;;;2.80;1.88;;;;;;;18.35;64.10;98985.88;2103140;27;20620;-50
2022/11/07 02:10:59;;;;;;;4.05;2.00;;;;;;;18.35;64.07;98981.34;2103895;28;20056;-48
2022/11/07 02:12:01;;;;;;;2.65;1.80;;;;;;;18.35;63.94;98981.34;2104133;28;20078;-48
2022/11/07 02:13:03;;;;;;;2.25;1.88;;;;;;;18.37;64.14;98984.69;2103820;28;20055;-48
2022/11/07 02:14:06;;;;;;;3.97;2.83;;;;;;;18.35;64.17;98978.66;2102869;28;20072;-46
2022/11/07 02:15:09;;;;;;;4.45;2.10;;;;;;;18.35;64.05;98975.97;2102771;28;20047;-47
2022/11/07 02:16:11;;;;;;;2.42;1.75;;;;;;;18.36;64.20;98976.81;2105867;28;20117;-47
2022/11/07 02:17:13;;;;;;;3.67;2.28;;;;;;;18.35;63.85;98975.97;2103699;27;20043;-49
2022/11/07 02:18:14;;;;;;;3.72;2.17;;;;;;;18.36;64.26;98979.47;2095979;28;20545;-50
2022/11/07 02:19:20;;;;;;;2.17;1.65;;;;;;;18.36;63.92;98974.97;2103275;28;20779;-49
2022/11/07 02:20:22;;;;;;;3.95;2.13;;;;;;;18.35;64.03;98975.97;2103180;28;20116;-47
2022/11/07 02:21:40;;;;;;;3.08;2.72;;;;;;;18.33;63.99;98972.69;2104060;28;20043;-49
2022/11/07 02:22:48;;;;;;;3.33;1.88;;;;;;;18.34;63.95;98974.31;2104127;27;20249;-52
2022/11/07 02:23:56;;;;;;;3.55;2.13;;;;;;;18.34;64.01;98971.63;2103204;28;20540;-50
2022/11/07 02:25:02;;;;;;;3.42;2.05;;;;;;;18.33;64.14;98972.69;2102710;28;21651;-47
2022/11/07 02:26:03;;;;;;;3.10;2.13;;;;;;;18.33;64.18;98969.13;2107625;28;22284;-47
2022/11/07 02:27:07;;;;;;;;;;;;;;;18.25;64.38;98978.19;2101199;28;20062;-47
2022/11/07 02:28:11;;;;;;;2.95;1.98;;;;;;;18.25;64.16;98968.25;2102789;28;19934;-48
2022/11/07 02:29:13;;;;;;;3.38;1.77;;;;;;;18.29;64.22;98974.88;2100842;28;20056;-47
2022/11/07 02:30:17;;;;;;;2.92;1.50;;;;;;;18.31;64.00;98978.22;2104134;28;20051;-47
2022/11/07 02:31:19;;;;;;;1.88;1.73;;;;;;;18.31;64.20;98972.84;2101612;27;21026;-48
2022/11/07 02:32:20;;;;;;;2.65;1.67;;;;;;;18.32;64.09;98971.00;2101128;27;20043;-48
2022/11/07 02:33:22;;;;;;;;;;;;;;;18.24;64.38;98968.44;2106792;27;20086;-47
2022/11/07 02:34:23;;;;;;;2.42;1.70;;;;;;;18.26;64.14;98972.59;2104024;28;20009;-49
2022/11/07 02:35:46;;;;;;;;;;;;;;;18.19;64.22;98969.03;2108273;28;20063;-47
2022/11/07 02:36:46;;;;;;;2.83;2.13;;;;;;;18.21;64.34;98966.97;2094264;28;19939;-48
2022/11/07 02:37:48;;;;;;;;;;;;;;;18.18;64.49;98966.53;2104120;28;20147;-47
2022/11/07 02:38:56;;;;;;;;;;;;;;;18.11;64.49;98960.25;2101527;28;19923;-49
2022/11/07 02:40:01;;;;;;;2.33;1.95;;;;;;;18.19;64.18;98971.72;2110475;27;20381;-47
2022/11/07 02:41:07;;;;;;;2.10;1.58;;;;;;;18.24;64.13;98973.81;2103462;28;20044;-48
2022/11/07 02:42:09;;;;;;;1.65;1.40;;;;;;;18.26;64.19;98966.41;2102552;28;20063;-51
2022/11/07 02:43:12;;;;;;;1.98;1.65;;;;;;;18.28;63.98;98969.72;2106918;28;20040;-47
2022/11/07 02:44:14;;;;;;;2.47;1.50;;;;;;;18.28;63.97;98975.09;2103592;28;20132;-48
2022/11/07 02:45:20;;;;;;;2.33;1.58;;;;;;;18.30;64.26;98962.28;2103228;28;20032;-47
2022/11/07 02:46:23;;;;;;;3.63;1.73;;;;;;;18.29;63.97;98969.53;2107736;27;20691;-50
2022/11/07 02:47:23;;;;;;;2.05;1.77;;;;;;;18.30;64.13;98967.66;2103078;27;20202;-49
2022/11/07 02:48:28;;;;;;;;;;;;;;;18.22;64.44;98970.47;2104690;28;20050;-48
2022/11/07 02:49:29;;;;;;;1.77;1.58;;;;;;;18.23;64.36;98966.78;2104797;28;19950;-46
2022/11/07 02:50:30;;;;;;;;;;;;;;;18.17;64.51;98967.56;2107403;28;20051;-48
2022/11/07 02:51:31;;;;;;;3.88;2.22;;;;;;;18.20;64.46;98967.19;2107854;28;19920;-50
2022/11/07 02:52:33;;;;;;;;;;;;;;;18.14;64.56;98974.16;2104404;28;20055;-48
2022/11/07 02:53:33;;;;;;;2.92;1.83;;;;;;;18.19;64.56;98965.50;2104891;27;19920;-48
2022/11/07 02:54:35;;;;;;;;;;;;;;;18.15;64.36;98972.28;2104940;28;20039;-48
2022/11/07 02:55:37;;;;;;;2.00;1.80;;;;;;;18.19;64.53;98970.88;2103835;27;19942;-47
2022/11/07 02:56:39;;;;;;;2.58;1.75;;;;;;;18.22;64.42;98975.84;2101605;27;20773;-49
2022/11/07 02:57:40;;;;;;;3.75;1.80;;;;;;;18.24;64.24;98973.81;2107777;27;20047;-47
2022/11/07 02:58:42;;;;;;;3.60;1.60;;;;;;;18.26;64.25;98975.28;2105795;28;20148;-51
2022/11/07 02:59:43;;;;;;;1.65;1.55;;;;;;;18.27;64.16;98976.09;2100967;28;20048;-49
2022/11/07 03:00:45;;;;;;;;;;;;;;;18.18;64.24;98977.28;2103496;28;20044;-51
2022/11/07 03:01:45;;;;;;;2.15;1.33;;;;;;;18.20;64.36;98976.06;2103685;28;19943;-47
2022/11/07 03:02:47;;;;;;;;;;;;;;;18.14;64.30;98973.31;2103228;28;20589;-48
2022/11/07 03:03:50;;;;;;;2.38;1.65;;;;;;;18.18;64.42;98974.59;2106812;28;19919;-48
2022/11/07 03:04:52;;;;;;;3.92;1.92;;;;;;;18.22;64.11;98971.34;2103807;28;20052;-47
2022/11/07 03:05:53;;;;;;;2.55;1.73;;;;;;;18.24;64.28;98974.63;2099179;28;21032;-47
2022/11/07 03:06:54;;;;;;;;;;;;;;;18.16;64.41;98976.63;2101579;28;20047;-47
2022/11/07 03:07:55;;;;;;;2.50;1.27;;;;;;;18.18;64.41;98975.41;2105922;28;19927;-52
2022/11/07 03:08:57;;;;;;;;;;;;;;;18.11;64.59;98973.69;2106461;27;20402;-47
2022/11/07 03:09:57;;;;;;;;;;;;;;;18.07;64.62;98979.44;2106054;28;19927;-48
2022/11/07 03:11:00;;;;;;;2.13;1.47;;;;;;;18.14;64.58;98973.31;2100074;27;20404;-49
2022/11/07 03:12:01;;;;;;;4.13;1.83;;;;;;;18.17;64.42;98972.94;2105598;28;20052;-48
2022/11/07 03:13:03;;;;;;;;;;;;;;;18.11;64.56;98979.91;2103242;28;20044;-47
2022/11/07 03:14:03;;;;;;;;;;;;;;;18.05;64.66;98981.50;2106755;28;20426;-49
2022/11/07 03:15:07;;;;;;;3.30;1.67;;;;;;;18.12;64.43;98983.41;2105181;28;19923;-48
2022/11/07 03:16:10;;;;;;;3.10;2.13;;;;;;;18.17;64.41;98981.81;2101816;28;20056;-47
2022/11/07 03:17:12;;;;;;;1.58;1.35;;;;;;;18.20;64.29;98984.13;2106490;28;20074;-50
2022/11/07 03:18:13;;;;;;;3.00;1.50;;;;;;;18.21;64.08;98987.63;2104218;27;22007;-49
2022/11/07 03:19:14;;;;;;;;;;;;;;;18.12;64.15;98981.56;2101749;28;20056;-50
2022/11/07 03:20:15;;;;;;;1.98;1.42;;;;;;;18.16;64.28;98976.63;2105408;28;19924;-46
2022/11/07 03:21:17;;;;;;;;;;;;;;;18.08;64.38;98973.06;2102447;28;20051;-47
2022/11/07 03:22:17;;;;;;;1.73;1.23;;;;;;;18.12;64.34;98973.50;2102795;28;20385;-48
2022/11/07 03:23:19;;;;;;;;;;;;;;;18.06;64.54;98972.41;2104512;28;20058;-48
2022/11/07 03:24:20;;;;;;;;;;;;;;;18.03;64.65;98977.34;2105115;28;19931;-47
2022/11/07 03:25:21;;;;;;;1.97;1.43;;;;;;;18.08;64.47;98978.44;2100520;28;19942;-50
2022/11/07 03:26:24;;;;;;;1.77;1.38;;;;;;;18.14;64.26;98974.16;2104353;27;20056;-48
2022/11/07 03:27:25;;;;;;;2.40;1.30;;;;;;;18.17;64.32;98972.94;2100848;28;20050;-50
2022/11/07 03:28:26;;;;;;;2.97;1.80;;;;;;;18.17;64.03;98968.41;2106702;28;20573;-50
2022/11/07 03:29:28;;;;;;;;;;;;;;;18.12;64.22;98976.19;2105468;28;20051;-49
2022/11/07 03:30:28;;;;;;;;;;;;;;;18.04;64.47;98977.13;2106613;27;19924;-51
2022/11/07 03:31:30;;;;;;;2.77;1.47;;;;;;;18.09;64.47;98982.78;2104066;28;19996;-47
2022/11/07 03:32:33;;;;;;;1.98;1.40;;;;;;;18.14;64.28;98982.22;2102720;28;20047;-50
2022/11/07 03:33:36;;;;;;;3.33;1.70;;;;;;;18.17;63.99;98975.63;2103368;28;20490;-46
2022/11/07 03:34:36;;;;;;;3.88;2.83;;;;;;;18.18;64.23;98979.97;2100944;27;20718;-51
2022/11/07 03:35:38;;;;;;;;;;;;;;;18.09;64.23;98981.94;2101472;28;20058;-47
2022/11/07 03:36:39;;;;;;;2.40;1.58;;;;;;;18.12;64.16;98986.09;2106040;28;19923;-47
2022/11/07 03:37:40;;;;;;;;;;;;;;;18.06;64.44;98983.16;2105375;28;20044;-47
2022/11/07 03:38:41;;;;;;;2.47;1.35;;;;;;;18.12;64.26;98988.78;2104002;28;19924;-51
2022/11/07 03:39:43;;;;;;;;;;;;;;;18.04;64.57;98990.56;2107136;28;20044;-50
2022/11/07 03:40:44;;;;;;;1.98;1.33;;;;;;;18.09;64.18;98990.81;2105574;28;19930;-50
2022/11/07 03:41:48;;;;;;;2.20;1.50;;;;;;;18.14;63.97;98992.13;2103301;28;20048;-48
2022/11/07 03:42:48;;;;;;;2.78;1.27;;;;;;;18.16;64.28;98987.38;2102860;28;20063;-52
2022/11/07 03:43:50;;;;;;;;;;;;;;;18.07;64.34;98987.50;2102983;28;20713;-50
2022/11/07 03:44:51;;;;;;;2.95;1.67;;;;;;;18.11;64.27;98989.78;2103830;28;19928;-47
2022/11/07 03:45:52;;;;;;;;;;;;;;;18.06;64.28;98990.38;2103375;28;20058;-47
2022/11/07 03:46:53;;;;;;;2.70;1.52;;;;;;;18.07;64.17;98983.97;2102722;28;19938;-50
2022/11/07 03:47:54;;;;;;;;;;;;;;;18.03;64.66;98985.41;2106534;28;24019;-46
2022/11/07 03:48:55;;;;;;;3.15;1.92;;;;;;;18.07;64.29;98992.03;2103908;28;20405;-47
2022/11/07 03:49:57;;;;;;;1.30;1.20;;;;;;;18.11;64.09;98989.78;2103281;28;20052;-50
2022/11/07 03:50:59;;;;;;;2.38;1.45;;;;;;;18.12;64.16;98986.94;2102574;28;20050;-48
2022/11/07 03:52:00;;;;;;;1.95;1.30;;;;;;;18.16;64.13;98990.03;2101996;28;20055;-48
2022/11/07 03:53:01;;;;;;;;;;;;;;;18.07;64.29;98992.03;2104055;28;20059;-49
2022/11/07 03:54:02;;;;;;;1.77;1.08;;;;;;;18.09;64.31;98996.19;2107098;28;19927;-48
2022/11/07 03:55:05;;;;;;;1.20;0.85;;;;;;;18.14;64.18;98995.63;2101796;28;20225;-51
2022/11/07 03:56:08;;;;;;;1.85;1.45;;;;;;;18.14;64.02;98995.63;2102559;28;20048;-46
2022/11/07 03:57:10;;;;;;;2.13;1.50;;;;;;;18.16;63.94;98998.94;2102478;28;20051;-48
2022/11/07 03:58:12;;;;;;;3.35;1.50;;;;;;;18.17;63.80;99000.59;2103044;28;20537;-50
2022/11/07 03:59:12;;;;;;;1.70;1.17;;;;;;;18.18;63.76;99001.44;2102109;28;20546;-49
2022/11/07 04:00:15;;;;;;;;;;;;;;;18.08;64.17;99012.50;2103509;28;20139;-49
2022/11/07 04:01:15;;;;;;;3.78;1.45;;;;;;;18.12;64.06;99002.22;2101200;28;22481;-47
2022/11/07 04:02:17;;;;;;;;;;;;;;;18.03;64.36;98994.28;2105277;28;20059;-48
2022/11/07 04:03:18;;;;;;;2.67;1.67;;;;;;;18.07;64.29;98998.22;2103244;28;20376;-49
2022/11/07 04:04:19;;;;;;;;;;;;;;;18.02;64.29;98995.28;2104527;28;20048;-48
2022/11/07 04:05:20;;;;;;;1.65;1.40;;;;;;;18.06;64.12;98998.44;2104210;28;20518;-47
2022/11/07 04:06:22;;;;;;;;;;;;;;;18.01;64.37;99007.03;2103608;28;20079;-47
2022/11/07 04:07:23;;;;;;;1.77;1.30;;;;;;;18.06;64.22;98995.75;2101942;28;19931;-49
2022/11/07 04:08:25;;;;;;;;;;;;;;;18.01;64.42;99011.59;2101379;28;20043;-48
2022/11/07 04:09:26;;;;;;;1.50;1.40;;;;;;;18.04;64.00;99000.47;2102169;28;19928;-49
2022/11/07 04:10:27;;;;;;;;;;;;;;;18.00;64.34;99008.09;2103393;28;20498;-46
2022/11/07 04:18:09;;;;;;;0.93;0.85;;;;;;;18.08;64.15;99017.88;2101158;28;20051;-47
2022/11/07 04:19:09;;;;;;;2.25;1.27;;;;;;;18.09;63.88;99017.66;2108937;28;20050;-47
2022/11/07 04:20:11;;;;;;;;;;;;;;;18.02;64.08;99013.25;2110409;28;20046;-50
2022/11/07 04:21:12;;;;;;;1.25;1.08;;;;;;;18.05;64.07;99015.53;2107287;28;19931;-49
2022/11/07 04:22:14;;;;;;;;;;;;;;;17.99;64.17;99019.00;2110568;28;20082;-49
2022/11/07 04:23:15;;;;;;;1.67;1.48;;;;;;;18.03;64.15;99012.25;2108622;28;19923;-51
2022/11/07 04:24:16;;;;;;;1.67;1.35;;;;;;;18.07;64.12;99010.81;2108454;28;20078;-47
2022/11/07 04:27:41;;;;;;;;;;;;;;;18.00;64.16;99018.81;2110145;28;20055;-47
2022/11/07 04:27:59;;;;;;;2.45;1.15;;;;;;;18.04;63.99;99014.72;2107890;27;20040;-46
2022/11/07 04:29:01;;;;;;;2.38;1.60;;;;;;;18.07;63.99;99016.19;2109718;28;20134;-47
2022/11/07 04:30:17;;;;;;;2.00;1.20;;;;;;;18.09;63.83;99019.53;2108678;28;20505;-51
2022/11/07 04:31:19;;;;;;;2.15;1.65;;;;;;;18.08;63.78;99023.25;2108593;28;20635;-50
2022/11/07 04:32:20;;;;;;;1.23;1.05;;;;;;;18.09;63.76;99020.34;2105395;28;20052;-48
2022/11/07 04:33:21;;;;;;;;;;;;;;;18.01;64.06;99028.53;2108046;28;20044;-46
2022/11/07 04:34:22;;;;;;;2.42;1.85;;;;;;;18.03;64.14;99025.66;2108411;28;19926;-49
2022/11/07 04:35:25;;;;;;;;;;;;;;;17.97;64.42;99038.00;2109427;28;20711;-49
2022/11/07 04:36:26;;;;;;;1.25;1.00;;;;;;;18.01;64.21;99039.25;2109354;28;19926;-48
2022/11/07 04:37:27;;;;;;;;;;;;;;;17.96;64.39;99032.78;2108544;28;20054;-47
2022/11/07 04:38:29;;;;;;;2.13;1.58;;;;;;;18.00;64.35;99024.19;2107862;28;19920;-47
2022/11/07 04:39:29;;;;;;;1.00;0.85;;;;;;;18.05;64.07;99034.31;2109150;28;20039;-50
2022/11/07 04:40:31;;;;;;;;;;;;;;;17.98;64.39;99033.44;2109570;28;20077;-47
2022/11/07 04:41:32;;;;;;;1.60;1.15;;;;;;;18.00;64.11;99026.88;2108607;28;20434;-48
2022/11/07 04:42:33;;;;;;;;;;;;;;;17.95;64.19;99034.66;2108816;28;20044;-46
2022/11/07 04:43:35;;;;;;;2.20;1.23;;;;;;;18.01;64.20;99028.53;2108473;28;19923;-48
2022/11/07 04:44:37;;;;;;;1.65;1.30;;;;;;;18.03;63.94;99023.81;2109951;28;20043;-48
2022/11/07 04:45:38;;;;;;;2.00;1.05;;;;;;;18.06;63.82;99015.38;2108555;28;20051;-50
2022/11/07 04:46:40;;;;;;;;;;;;;;;17.98;64.21;99018.16;2104081;28;20050;-48
2022/11/07 04:47:40;;;;;;;;;;;;;;;17.92;64.30;99016.25;2102692;28;19930;-52
2022/11/07 04:48:42;;;;;;;1.30;1.08;;;;;;;17.98;64.15;99014.66;2103884;28;20281;-50
2022/11/07 04:49:43;;;;;;;1.95;0.98;;;;;;;18.01;64.19;99009.72;2104289;28;20065;-48
2022/11/07 04:50:45;;;;;;;;;;;;;;;17.95;64.36;99015.88;2104680;28;20104;-52
2022/11/07 04:51:46;;;;;;;1.48;1.00;;;;;;;17.98;64.09;99007.44;2103563;28;19928;-47
2022/11/07 04:52:48;;;;;;;;;;;;;;;17.93;64.16;99009.84;2103578;28;20541;-50
2022/11/07 04:53:48;;;;;;;2.78;1.17;;;;;;;17.99;64.10;99005.56;2104144;28;20715;-48
2022/11/07 04:54:50;;;;;;;;;;;;;;;17.92;64.37;99010.88;2107814;28;20051;-48
2022/11/07 04:55:51;;;;;;;1.65;1.23;;;;;;;17.96;64.24;99012.16;2105784;28;19927;-52
2022/11/07 04:56:52;;;;;;;1.83;0.95;;;;;;;18.02;64.00;99014.06;2107599;28;20040;-48
2022/11/07 04:57:53;;;;;;;1.20;1.00;;;;;;;18.04;63.83;99013.88;2105226;28;20091;-48
2022/11/07 04:58:56;;;;;;;;;;;;;;;17.96;64.00;99014.00;2106794;28;20052;-47
2022/11/07 04:59:57;;;;;;;2.58;1.30;;;;;;;18.00;63.91;99015.31;2105994;28;19935;-48
2022/11/07 05:00:59;;;;;;;;;;;;;;;17.93;64.28;99009.84;2104503;28;20047;-51
2022/11/07 05:02:01;;;;;;;3.95;1.40;;;;;;;17.98;64.18;99011.97;2106414;28;19924;-52
2022/11/07 05:03:02;;;;;;;1.23;1.00;;;;;;;18.00;63.98;99010.75;2106719;27;20556;-48
2022/11/07 05:04:03;;;;;;;1.80;1.27;;;;;;;18.02;64.05;99011.38;2108297;28;20062;-51
2022/11/07 05:05:05;;;;;;;;;;;;;;;17.95;63.94;99015.88;2109244;27;20596;-47
2022/11/07 05:06:08;;;;;;;1.25;0.90;;;;;;;18.00;64.03;99018.00;2107345;28;19939;-46
2022/11/07 05:07:10;;;;;;;1.77;1.00;;;;;;;18.01;64.17;99020.47;2106746;28;20047;-50
2022/11/07 05:08:11;;;;;;;1.70;1.00;;;;;;;18.03;63.89;99015.75;2107374;27;20051;-50
2022/11/07 05:09:15;;;;;;;;;;;;;;;17.95;64.17;99023.09;2106898;28;20054;-51
2022/11/07 05:10:18;;;;;;;3.03;0.90;;;;;;;17.98;63.91;99020.84;2105337;28;20122;-50
2022/11/07 05:11:20;;;;;;;1.15;1.05;;;;;;;18.01;63.82;99016.97;2103293;28;20051;-49
2022/11/07 05:12:21;;;;;;;1.17;0.93;;;;;;;18.02;63.75;99014.06;2101694;28;20052;-49